KGNT/GNT METAR and TAF weather

Enter ICAO airport designator
Station Type Date Time Source
KGNT METAR 2020/08/05 15:35 UTC NOAA

KGNT 051535Z AUTO 00000KT 10SM SCT110 25/03 A3031 RMK AO2 T02530030


Station Type Date Time Source
KGNT Decoded METAR 2020/08/05 15:35 UTC NOAA

GRANTS-MILAN MUNICIPAL AIRPORT , NM, United States (KGNT) 35-10N 107-54W 1987M
Aug 05, 2020 - 11:35 AM EDT / 2020.08.05 1535 UTC
Wind: Calm:0
Visibility: 10 mile(s):0
Sky conditions: partly cloudy
Temperature: 77.5 F (25.3 C)
Dew Point: 37.4 F (3.0 C)
Relative Humidity: 23%
Pressure (altimeter): 30.31 in. Hg (1026 hPa)
ob: KGNT 051535Z AUTO 00000KT 10SM SCT110 25/03 A3031 RMK AO2 T02530030
cycle: 15

Station Type Date Time Source
KGNT TAF UTC NOAA

Error!

Example: see airport list